createdAt,value
2023-04-30T00:00:07.848Z,89.79
2023-04-30T00:01:14.366Z,89.79
2023-04-30T00:02:07.826Z,89.89
2023-04-30T00:03:07.867Z,89.89
2023-04-30T00:04:07.848Z,89.89
2023-04-30T00:05:07.772Z,89.89
2023-04-30T00:06:07.837Z,90.00
2023-04-30T00:07:07.733Z,89.89
2023-04-30T00:08:07.722Z,89.89
2023-04-30T00:09:07.725Z,90.00
2023-04-30T00:10:07.723Z,90.10
2023-04-30T00:11:07.705Z,90.04
2023-04-30T00:12:07.684Z,90.04
2023-04-30T00:13:07.677Z,90.04
2023-04-30T00:14:07.663Z,90.04
2023-04-30T00:15:07.666Z,90.14
2023-04-30T00:16:07.662Z,90.14
2023-04-30T00:17:07.632Z,90.25
2023-04-30T00:18:07.703Z,90.35
2023-04-30T00:19:07.620Z,90.45
2023-04-30T00:20:07.644Z,90.45
2023-04-30T00:21:07.587Z,90.35
2023-04-30T00:22:07.571Z,90.25
2023-04-30T00:23:07.567Z,90.14
2023-04-30T00:24:07.551Z,90.14
2023-04-30T00:25:07.568Z,90.25
2023-04-30T00:26:07.538Z,90.25
2023-04-30T00:27:07.529Z,90.25
2023-04-30T00:28:07.517Z,90.45
2023-04-30T00:29:07.494Z,90.29
2023-04-30T00:30:07.507Z,90.19
2023-04-30T00:31:07.484Z,90.39
2023-04-30T00:32:07.511Z,90.39
2023-04-30T00:33:07.479Z,90.50
2023-04-30T00:34:07.440Z,90.64
2023-04-30T00:35:07.448Z,90.84
2023-04-30T00:36:07.412Z,90.84
2023-04-30T00:37:07.409Z,91.05
2023-04-30T00:38:07.407Z,91.05
2023-04-30T00:39:07.390Z,90.95
2023-04-30T00:40:07.385Z,91.05
2023-04-30T00:41:07.366Z,91.05
2023-04-30T00:42:07.349Z,91.16
2023-04-30T00:43:07.337Z,91.16
2023-04-30T00:44:07.326Z,91.26
2023-04-30T00:45:07.344Z,91.47
2023-04-30T00:46:07.350Z,91.16
2023-04-30T00:47:07.295Z,91.16
2023-04-30T00:48:07.335Z,91.16
2023-04-30T00:49:07.271Z,91.05
2023-04-30T00:50:07.282Z,91.16
2023-04-30T00:51:07.242Z,91.20
2023-04-30T00:52:07.239Z,91.41
2023-04-30T00:53:07.223Z,91.20
2023-04-30T00:54:07.214Z,91.30
2023-04-30T00:55:07.235Z,91.41
2023-04-30T00:56:07.186Z,91.30
2023-04-30T00:57:07.214Z,91.41
2023-04-30T00:58:07.192Z,91.51
2023-04-30T00:59:07.163Z,91.61
2023-04-30T01:00:07.166Z,91.61
2023-04-30T01:01:07.207Z,91.61
2023-04-30T01:02:07.180Z,91.72
2023-04-30T01:03:07.220Z,91.72
2023-04-30T01:04:07.106Z,91.61
2023-04-30T01:05:07.121Z,91.61
2023-04-30T01:06:07.106Z,91.72
2023-04-30T01:07:07.066Z,91.51
2023-04-30T01:08:07.058Z,91.51
2023-04-30T01:09:07.064Z,91.51
2023-04-30T01:10:07.096Z,91.45
2023-04-30T01:11:07.048Z,91.41
2023-04-30T01:12:07.032Z,91.35
2023-04-30T01:13:07.005Z,91.35
2023-04-30T01:14:06.993Z,91.35
2023-04-30T01:15:07.002Z,91.55
2023-04-30T01:16:06.997Z,91.55
2023-04-30T01:17:06.954Z,91.45
2023-04-30T01:18:07.042Z,91.45
2023-04-30T01:19:07.017Z,91.45
2023-04-30T01:20:06.943Z,91.35
2023-04-30T01:21:06.922Z,91.35
2023-04-30T01:22:06.907Z,91.45
2023-04-30T01:23:06.907Z,91.55
2023-04-30T01:24:06.873Z,91.60
2023-04-30T01:25:06.897Z,91.70
2023-04-30T01:26:06.861Z,91.80
2023-04-30T01:27:06.855Z,91.80
2023-04-30T01:28:06.835Z,91.97
2023-04-30T01:29:06.832Z,91.80
2023-04-30T01:30:06.851Z,91.80
2023-04-30T01:31:06.834Z,91.80
2023-04-30T01:32:06.803Z,91.70
2023-04-30T01:33:06.801Z,91.70
2023-04-30T01:34:06.769Z,91.70
2023-04-30T01:35:06.787Z,91.80
2023-04-30T01:36:06.753Z,91.80
2023-04-30T01:37:06.735Z,91.91
2023-04-30T01:38:06.736Z,91.95
2023-04-30T01:39:06.717Z,91.95
2023-04-30T01:40:06.726Z,92.16
2023-04-30T01:41:06.698Z,92.05
2023-04-30T01:42:06.680Z,92.05
2023-04-30T01:43:06.680Z,92.05
2023-04-30T01:44:06.676Z,91.95
2023-04-30T01:45:06.684Z,92.16
2023-04-30T01:46:06.719Z,92.26
2023-04-30T01:47:06.622Z,92.36
2023-04-30T01:48:06.701Z,92.36
2023-04-30T01:49:06.605Z,92.36
2023-04-30T01:50:06.597Z,92.36
2023-04-30T01:51:06.608Z,92.26
2023-04-30T01:52:06.564Z,92.26
2023-04-30T01:53:06.572Z,92.36
2023-04-30T01:54:06.552Z,92.36
2023-04-30T01:55:06.552Z,92.36
2023-04-30T01:56:06.559Z,92.26
2023-04-30T01:57:06.525Z,92.30
2023-04-30T01:58:06.511Z,92.20
2023-04-30T01:59:06.494Z,92.20
2023-04-30T02:00:06.480Z,92.20
2023-04-30T02:01:06.523Z,92.30
2023-04-30T02:02:06.465Z,92.30
2023-04-30T02:03:06.530Z,92.30
2023-04-30T02:04:06.513Z,92.41
2023-04-30T02:05:06.421Z,92.51
2023-04-30T02:06:06.482Z,92.51
2023-04-30T02:07:06.431Z,92.51
2023-04-30T02:08:06.404Z,92.41
2023-04-30T02:09:06.392Z,92.41
2023-04-30T02:10:06.385Z,92.20
2023-04-30T02:11:06.380Z,92.20
2023-04-30T02:12:06.354Z,92.20
2023-04-30T02:13:06.346Z,92.30
2023-04-30T02:14:06.327Z,92.20
2023-04-30T02:15:06.326Z,92.20
2023-04-30T02:16:06.372Z,92.10
2023-04-30T02:17:06.292Z,92.10
2023-04-30T02:18:06.341Z,92.10
2023-04-30T02:19:06.277Z,92.10
2023-04-30T02:20:06.254Z,91.99
2023-04-30T02:21:06.266Z,92.10
2023-04-30T02:22:06.244Z,92.10
2023-04-30T02:23:06.228Z,92.10
2023-04-30T02:24:06.276Z,91.99
2023-04-30T02:25:06.217Z,91.89
2023-04-30T02:26:06.207Z,91.68
2023-04-30T02:27:06.184Z,91.68
2023-04-30T02:28:06.177Z,91.68
2023-04-30T02:29:06.175Z,91.68
2023-04-30T02:30:06.160Z,91.68
2023-04-30T02:31:06.191Z,91.47
2023-04-30T02:32:06.170Z,91.47
2023-04-30T02:33:06.144Z,91.58
2023-04-30T02:34:06.104Z,91.58
2023-04-30T02:35:06.094Z,91.58
2023-04-30T02:36:06.113Z,91.47
2023-04-30T02:37:06.068Z,91.58
2023-04-30T02:38:06.058Z,91.58
2023-04-30T02:39:06.061Z,91.47
2023-04-30T02:40:06.036Z,91.62
2023-04-30T02:41:06.045Z,91.58
2023-04-30T02:42:06.021Z,91.62
2023-04-30T02:43:06.012Z,91.62
2023-04-30T02:44:05.991Z,91.62
2023-04-30T02:45:05.978Z,91.62
2023-04-30T02:46:06.024Z,91.62
2023-04-30T02:47:05.962Z,91.72
2023-04-30T02:48:06.000Z,91.72
2023-04-30T02:49:05.937Z,91.72
2023-04-30T02:50:05.930Z,91.72
2023-04-30T02:51:05.936Z,91.83
2023-04-30T02:52:05.895Z,91.83
2023-04-30T02:53:05.895Z,92.03
2023-04-30T02:54:05.902Z,92.03
2023-04-30T02:55:05.881Z,92.03
2023-04-30T02:56:05.882Z,91.93
2023-04-30T02:57:05.848Z,92.03
2023-04-30T02:58:05.855Z,92.03
2023-04-30T02:59:05.833Z,91.93
2023-04-30T03:00:05.840Z,91.93
2023-04-30T03:01:05.871Z,91.93
2023-04-30T03:02:05.822Z,91.93
2023-04-30T03:03:05.926Z,91.93
2023-04-30T03:04:05.772Z,92.03
2023-04-30T03:05:05.773Z,92.03
2023-04-30T03:06:05.832Z,92.14
2023-04-30T03:07:05.750Z,92.14
2023-04-30T03:08:05.724Z,92.03
2023-04-30T03:09:05.711Z,92.03
2023-04-30T03:10:05.695Z,92.03
2023-04-30T03:11:05.703Z,92.03
2023-04-30T03:12:05.679Z,92.03
2023-04-30T03:13:05.682Z,92.03
2023-04-30T03:14:05.705Z,91.97
2023-04-30T03:15:05.648Z,91.97
2023-04-30T03:16:05.682Z,91.97
2023-04-30T03:17:05.626Z,92.07
2023-04-30T03:18:05.648Z,92.07
2023-04-30T03:19:05.626Z,92.07
2023-04-30T03:20:05.606Z,92.18
2023-04-30T03:21:05.598Z,92.18
2023-04-30T03:22:05.573Z,92.18
2023-04-30T03:23:05.556Z,92.28
2023-04-30T03:24:05.549Z,92.38
2023-04-30T03:25:05.547Z,92.28
2023-04-30T03:26:05.570Z,92.28
2023-04-30T03:27:05.521Z,92.38
2023-04-30T03:28:05.514Z,92.49
2023-04-30T03:29:05.503Z,92.38
2023-04-30T03:30:05.499Z,92.43
2023-04-30T03:31:05.568Z,92.53
2023-04-30T03:32:05.467Z,92.53
2023-04-30T03:33:05.553Z,92.53
2023-04-30T03:34:05.447Z,92.53
2023-04-30T03:35:05.447Z,92.43
2023-04-30T03:36:05.428Z,92.22
2023-04-30T03:37:05.418Z,92.47
2023-04-30T03:38:05.421Z,92.99
2023-04-30T03:39:05.388Z,93.20
2023-04-30T03:40:05.380Z,93.26
2023-04-30T03:41:05.388Z,93.30
2023-04-30T03:42:05.359Z,93.47
2023-04-30T03:43:05.357Z,93.47
2023-04-30T03:44:05.340Z,93.37
2023-04-30T03:45:05.325Z,93.26
2023-04-30T03:46:05.379Z,93.57
2023-04-30T03:47:05.306Z,93.68
2023-04-30T03:48:05.324Z,93.68
2023-04-30T03:49:05.286Z,93.68
2023-04-30T03:50:05.266Z,93.68
2023-04-30T03:51:05.274Z,93.68
2023-04-30T03:52:05.248Z,93.68
2023-04-30T03:53:05.251Z,93.63
2023-04-30T03:54:05.235Z,93.57
2023-04-30T03:55:05.221Z,93.47
2023-04-30T03:56:05.225Z,93.47
2023-04-30T03:57:05.210Z,93.47
2023-04-30T03:58:05.178Z,93.43
2023-04-30T03:59:05.175Z,93.43
2023-04-30T04:00:05.156Z,93.22
2023-04-30T04:01:05.171Z,93.26
2023-04-30T04:02:05.159Z,93.12
2023-04-30T04:03:05.189Z,93.12
2023-04-30T04:04:05.165Z,92.94
2023-04-30T04:05:05.107Z,93.01
2023-04-30T04:06:05.164Z,92.94
2023-04-30T04:07:05.083Z,92.84
2023-04-30T04:08:05.072Z,92.94
2023-04-30T04:09:05.069Z,93.05
2023-04-30T04:10:05.045Z,93.05
2023-04-30T04:11:05.058Z,92.94
2023-04-30T04:12:05.025Z,92.94
2023-04-30T04:13:05.022Z,92.94
2023-04-30T04:14:05.004Z,93.05
2023-04-30T04:15:05.001Z,93.05
2023-04-30T04:16:05.025Z,93.16
2023-04-30T04:17:04.979Z,93.16
2023-04-30T04:18:04.981Z,93.16
2023-04-30T04:19:04.973Z,93.12
2023-04-30T04:20:04.945Z,93.01
2023-04-30T04:21:04.958Z,93.01
2023-04-30T04:22:04.944Z,93.01
2023-04-30T04:23:04.930Z,92.90
2023-04-30T04:24:04.918Z,93.01
2023-04-30T04:25:04.893Z,93.01
2023-04-30T04:26:04.910Z,92.90
2023-04-30T04:27:04.884Z,92.90
2023-04-30T04:28:04.852Z,93.01
2023-04-30T04:29:04.839Z,93.01
2023-04-30T04:30:04.839Z,93.01
2023-04-30T04:31:04.836Z,93.01
2023-04-30T04:32:04.844Z,93.01
2023-04-30T04:33:04.921Z,93.12
2023-04-30T04:34:04.797Z,93.01
2023-04-30T04:35:04.779Z,93.22
2023-04-30T04:36:04.763Z,93.32
2023-04-30T04:37:04.766Z,93.22
2023-04-30T04:38:04.750Z,93.22
2023-04-30T04:39:04.727Z,93.22
2023-04-30T04:40:04.717Z,93.22
2023-04-30T04:41:04.721Z,93.22
2023-04-30T04:42:07.388Z,93.18
2023-04-30T04:43:04.678Z,93.18
2023-04-30T04:44:04.670Z,93.18
2023-04-30T04:45:04.663Z,93.18
2023-04-30T04:46:04.703Z,93.18
2023-04-30T04:47:04.639Z,93.28
2023-04-30T04:48:04.702Z,93.28
2023-04-30T04:49:04.629Z,93.38
2023-04-30T04:50:04.608Z,93.28
2023-04-30T04:51:04.630Z,93.28
2023-04-30T04:52:04.577Z,93.23
2023-04-30T04:53:04.583Z,93.13
2023-04-30T04:54:04.567Z,93.13
2023-04-30T04:55:04.572Z,93.13
2023-04-30T04:56:04.554Z,93.13
2023-04-30T04:57:04.536Z,93.13
2023-04-30T04:58:04.513Z,93.13
2023-04-30T04:59:04.514Z,93.23
2023-04-30T05:00:04.491Z,93.23
2023-04-30T05:01:04.490Z,93.23
2023-04-30T05:02:04.518Z,93.13
2023-04-30T05:03:04.538Z,93.13
2023-04-30T05:04:04.487Z,93.13
2023-04-30T05:05:04.444Z,93.08
2023-04-30T05:06:04.476Z,93.08
2023-04-30T05:07:04.417Z,93.08
2023-04-30T05:08:04.403Z,93.08
2023-04-30T05:09:04.390Z,92.98
2023-04-30T05:10:04.395Z,92.98
2023-04-30T05:11:04.407Z,93.08
2023-04-30T05:12:04.355Z,93.08
2023-04-30T05:13:04.354Z,93.08
2023-04-30T05:14:04.333Z,93.08
2023-04-30T05:15:04.329Z,93.08
2023-04-30T05:16:04.361Z,93.04
2023-04-30T05:17:04.329Z,93.04
2023-04-30T05:18:04.364Z,93.15
2023-04-30T05:19:04.309Z,93.15
2023-04-30T05:20:04.283Z,93.25
2023-04-30T05:21:04.260Z,93.35
2023-04-30T05:22:04.316Z,93.35
2023-04-30T05:23:04.245Z,93.35
2023-04-30T05:24:04.228Z,93.35
2023-04-30T05:25:04.220Z,93.31
2023-04-30T05:26:04.209Z,93.31
2023-04-30T05:27:04.210Z,93.31
2023-04-30T05:28:04.190Z,93.31
2023-04-30T05:29:04.183Z,93.31
2023-04-30T05:30:04.171Z,93.31
2023-04-30T05:31:04.178Z,93.31
2023-04-30T05:32:04.218Z,93.27
2023-04-30T05:33:04.231Z,93.27
2023-04-30T05:34:04.122Z,93.27
2023-04-30T05:35:04.100Z,93.27
2023-04-30T05:36:04.100Z,93.27
2023-04-30T05:37:04.093Z,93.37
2023-04-30T05:38:04.065Z,93.33
2023-04-30T05:39:04.167Z,93.33
2023-04-30T05:40:04.062Z,93.33
2023-04-30T05:41:04.046Z,93.33
2023-04-30T05:42:04.044Z,93.33
2023-04-30T05:43:04.017Z,93.33
2023-04-30T05:44:04.013Z,93.29
2023-04-30T05:45:04.000Z,93.29
2023-04-30T05:46:04.024Z,93.29
2023-04-30T05:47:03.990Z,93.18
2023-04-30T05:48:04.011Z,93.18
2023-04-30T05:49:03.954Z,93.14
2023-04-30T05:50:03.941Z,93.14
2023-04-30T05:51:03.926Z,93.14
2023-04-30T05:52:03.933Z,93.14
2023-04-30T05:53:03.904Z,93.04
2023-04-30T05:54:03.896Z,93.04
2023-04-30T05:55:03.889Z,92.99
2023-04-30T05:56:03.880Z,93.10
2023-04-30T05:57:03.891Z,93.10
2023-04-30T05:58:03.866Z,92.99
2023-04-30T05:59:03.837Z,92.85
2023-04-30T06:00:03.830Z,92.85
2023-04-30T06:01:03.824Z,92.74
2023-04-30T06:02:03.893Z,92.74
2023-04-30T06:03:03.824Z,92.64
2023-04-30T06:04:03.811Z,92.54
2023-04-30T06:05:03.845Z,92.50
2023-04-30T06:06:03.813Z,92.50
2023-04-30T06:07:03.787Z,92.50
2023-04-30T06:08:03.749Z,92.70
2023-04-30T06:09:03.737Z,92.60
2023-04-30T06:10:03.732Z,92.50
2023-04-30T06:11:03.717Z,92.70
2023-04-30T06:12:03.723Z,92.80
2023-04-30T06:13:03.692Z,92.76
2023-04-30T06:14:03.678Z,92.76
2023-04-30T06:15:03.671Z,92.66
2023-04-30T06:16:03.688Z,92.66
2023-04-30T06:17:03.655Z,92.66
2023-04-30T06:18:03.673Z,92.55
2023-04-30T06:19:03.642Z,92.61
2023-04-30T06:20:03.610Z,92.51
2023-04-30T06:21:03.605Z,91.17
2023-04-30T06:22:03.605Z,90.66
2023-04-30T06:23:03.579Z,90.55
2023-04-30T06:24:03.573Z,90.66
2023-04-30T06:25:03.579Z,90.55
2023-04-30T06:26:03.546Z,90.51
2023-04-30T06:27:03.557Z,90.51
2023-04-30T06:28:03.528Z,90.41
2023-04-30T06:29:03.528Z,90.51
2023-04-30T06:30:03.500Z,90.37
2023-04-30T06:31:03.511Z,90.26
2023-04-30T06:32:03.504Z,89.65
2023-04-30T06:33:03.493Z,89.03
2023-04-30T06:34:03.483Z,88.99
2023-04-30T06:35:03.464Z,88.89
2023-04-30T06:36:03.434Z,88.57
2023-04-30T06:37:03.483Z,88.57
2023-04-30T06:38:03.405Z,87.81
2023-04-30T06:39:03.397Z,87.71
2023-04-30T06:40:03.398Z,88.12
2023-04-30T06:41:03.383Z,87.60
2023-04-30T06:42:03.386Z,87.51
2023-04-30T06:43:03.352Z,87.87
2023-04-30T06:44:03.350Z,87.67
2023-04-30T06:45:03.336Z,86.74
2023-04-30T06:46:03.340Z,85.92
2023-04-30T06:47:03.334Z,85.10
2023-04-30T06:48:03.334Z,84.07
2023-04-30T06:49:03.291Z,84.38
2023-04-30T06:50:03.271Z,84.54
2023-04-30T06:51:03.267Z,83.83
2023-04-30T06:52:03.269Z,81.19
2023-04-30T06:53:03.245Z,79.54
2023-04-30T06:54:03.225Z,80.43
2023-04-30T06:55:03.216Z,80.43
2023-04-30T06:56:03.208Z,80.43
2023-04-30T06:57:03.220Z,81.15
2023-04-30T06:58:03.189Z,81.42
2023-04-30T06:59:03.175Z,81.42
2023-04-30T07:00:03.162Z,80.80
2023-04-30T07:01:03.192Z,80.60
2023-04-30T07:02:03.168Z,80.29
2023-04-30T07:03:03.227Z,78.96
2023-04-30T07:04:03.165Z,78.75
2023-04-30T07:05:03.137Z,79.36
2023-04-30T07:06:03.179Z,79.47
2023-04-30T07:07:03.111Z,79.43
2023-04-30T07:08:03.067Z,79.22
2023-04-30T07:09:03.063Z,78.92
2023-04-30T07:10:03.053Z,78.81
2023-04-30T07:11:03.043Z,78.92
2023-04-30T07:12:03.041Z,76.65
2023-04-30T07:13:03.023Z,76.42
2023-04-30T07:14:03.012Z,76.51
2023-04-30T07:15:03.000Z,76.42
2023-04-30T07:16:03.002Z,76.82
2023-04-30T07:17:02.993Z,76.62
2023-04-30T07:18:02.994Z,75.08
2023-04-30T07:19:02.947Z,75.38
2023-04-30T07:20:02.950Z,74.98
2023-04-30T07:21:02.927Z,74.67
2023-04-30T07:22:02.940Z,74.57
2023-04-30T07:23:02.904Z,73.02
2023-04-30T07:24:02.923Z,72.10
2023-04-30T07:25:02.881Z,73.23
2023-04-30T07:26:02.907Z,73.61
2023-04-30T07:27:02.937Z,74.02
2023-04-30T07:28:02.857Z,73.57
2023-04-30T07:29:02.839Z,72.24
2023-04-30T07:30:02.836Z,70.67
2023-04-30T07:31:02.823Z,70.87
2023-04-30T07:32:02.931Z,70.87
2023-04-30T07:33:02.863Z,70.87
2023-04-30T07:34:02.781Z,71.08
2023-04-30T07:35:02.770Z,70.97
2023-04-30T07:36:02.754Z,71.28
2023-04-30T07:37:02.775Z,71.69
2023-04-30T07:38:02.731Z,72.17
2023-04-30T07:39:02.745Z,72.48
2023-04-30T07:40:02.735Z,72.86
2023-04-30T07:41:02.714Z,73.06
2023-04-30T07:42:02.717Z,73.33
2023-04-30T07:43:02.703Z,73.13
2023-04-30T07:44:02.673Z,72.82
2023-04-30T07:45:02.686Z,72.82
2023-04-30T07:46:02.749Z,72.52
2023-04-30T07:47:02.653Z,71.28
2023-04-30T07:48:02.653Z,70.16
2023-04-30T07:49:02.613Z,70.77
2023-04-30T07:50:02.642Z,70.47
2023-04-30T07:51:02.595Z,69.13
2023-04-30T07:52:02.599Z,69.54
2023-04-30T07:53:02.577Z,70.67
2023-04-30T07:54:02.558Z,70.33
2023-04-30T07:55:02.555Z,69.71
2023-04-30T07:56:02.561Z,69.71
2023-04-30T07:57:02.556Z,68.69
2023-04-30T07:58:02.514Z,67.87
2023-04-30T07:59:02.510Z,69.20
2023-04-30T08:00:02.498Z,68.08
2023-04-30T08:01:02.481Z,67.36
2023-04-30T08:02:02.504Z,66.47
2023-04-30T08:03:02.626Z,68.62
2023-04-30T08:04:02.588Z,69.75
2023-04-30T08:05:02.445Z,70.06
2023-04-30T08:06:02.457Z,69.75
2023-04-30T08:07:02.433Z,70.16
2023-04-30T08:08:02.406Z,70.06
2023-04-30T08:09:02.399Z,69.61
2023-04-30T08:10:02.382Z,69.00
2023-04-30T08:11:02.379Z,68.97
2023-04-30T08:12:02.378Z,69.27
2023-04-30T08:13:02.351Z,69.89
2023-04-30T08:14:02.344Z,69.58
2023-04-30T08:15:02.330Z,69.68
2023-04-30T08:16:02.353Z,70.64
2023-04-30T08:17:02.430Z,70.94
2023-04-30T08:18:02.309Z,70.77
2023-04-30T08:19:02.285Z,69.75
2023-04-30T08:20:02.269Z,69.57
2023-04-30T08:21:02.266Z,69.47
2023-04-30T08:22:02.271Z,68.45
2023-04-30T08:23:02.243Z,69.20
2023-04-30T08:24:02.266Z,70.32
2023-04-30T08:25:02.228Z,71.93
2023-04-30T08:26:02.207Z,71.52
2023-04-30T08:27:02.204Z,69.75
2023-04-30T08:28:02.191Z,69.54
2023-04-30T08:29:02.190Z,69.61
2023-04-30T08:30:02.162Z,70.29
2023-04-30T08:31:02.149Z,69.68
2023-04-30T08:32:02.247Z,67.71
2023-04-30T08:33:02.143Z,68.01
2023-04-30T08:34:02.114Z,67.71
2023-04-30T08:35:02.117Z,67.81
2023-04-30T08:36:02.099Z,67.40
2023-04-30T08:37:02.099Z,67.30
2023-04-30T08:38:02.074Z,67.50
2023-04-30T08:39:02.070Z,66.58
2023-04-30T08:40:02.100Z,66.99
2023-04-30T08:41:02.058Z,67.40
2023-04-30T08:42:02.054Z,68.22
2023-04-30T08:43:02.009Z,66.89
2023-04-30T08:44:02.001Z,65.56
2023-04-30T08:45:02.019Z,65.66
2023-04-30T08:46:02.042Z,66.58
2023-04-30T08:47:01.993Z,67.16
2023-04-30T08:48:02.004Z,66.14
2023-04-30T08:49:01.946Z,65.53
2023-04-30T08:50:01.936Z,65.73
2023-04-30T08:51:01.937Z,65.33
2023-04-30T08:52:01.948Z,65.84
2023-04-30T08:53:01.916Z,65.19
2023-04-30T08:54:01.894Z,64.89
2023-04-30T08:55:01.895Z,64.37
2023-04-30T08:56:01.871Z,64.78
2023-04-30T08:57:01.889Z,65.57
2023-04-30T08:58:01.855Z,64.65
2023-04-30T08:59:01.845Z,62.51
2023-04-30T09:00:01.831Z,63.63
2023-04-30T09:01:01.923Z,64.14
2023-04-30T09:02:01.918Z,64.24
2023-04-30T09:03:01.869Z,63.40
2023-04-30T09:04:01.843Z,62.37
2023-04-30T09:05:01.782Z,61.56
2023-04-30T09:06:01.809Z,62.17
2023-04-30T09:07:04.234Z,63.09
2023-04-30T09:08:04.130Z,63.81
2023-04-30T09:09:01.763Z,63.19
2023-04-30T09:10:01.720Z,64.01
2023-04-30T09:11:01.708Z,62.88
2023-04-30T09:12:01.740Z,63.09
2023-04-30T09:13:01.689Z,63.49
2023-04-30T09:14:01.689Z,61.56
2023-04-30T09:15:01.689Z,61.56
2023-04-30T09:16:01.677Z,61.25
2023-04-30T09:17:01.648Z,61.66
2023-04-30T09:18:01.686Z,62.37
2023-04-30T09:19:01.615Z,63.47
2023-04-30T09:20:01.596Z,63.87
2023-04-30T09:21:01.589Z,63.87
2023-04-30T09:22:01.590Z,62.65
2023-04-30T09:23:01.580Z,63.87
2023-04-30T09:24:01.600Z,63.47
2023-04-30T09:25:01.545Z,62.55
2023-04-30T09:26:01.845Z,61.43
2023-04-30T09:27:01.518Z,60.71
2023-04-30T09:28:01.522Z,61.35
2023-04-30T09:29:01.500Z,63.57
2023-04-30T09:30:01.488Z,62.35
2023-04-30T09:31:01.509Z,63.16
2023-04-30T09:32:01.630Z,62.24
2023-04-30T09:33:01.537Z,63.75
2023-04-30T09:34:01.461Z,63.03
2023-04-30T09:35:01.437Z,63.85
2023-04-30T09:36:01.415Z,60.78
2023-04-30T09:37:01.422Z,59.26
2023-04-30T09:38:01.415Z,60.28
2023-04-30T09:39:01.390Z,61.50
2023-04-30T09:40:01.377Z,61.71
2023-04-30T09:41:01.652Z,62.11
2023-04-30T09:42:01.349Z,62.49
2023-04-30T09:43:01.365Z,62.29
2023-04-30T09:44:01.378Z,61.68
2023-04-30T09:45:01.345Z,61.27
2023-04-30T09:46:01.306Z,60.45
2023-04-30T09:47:01.348Z,61.37
2023-04-30T09:48:09.239Z,60.66
2023-04-30T09:49:01.295Z,60.66
2023-04-30T09:50:01.283Z,60.42
2023-04-30T09:51:01.258Z,59.91
2023-04-30T09:52:01.300Z,59.51
2023-04-30T09:53:01.239Z,59.68
2023-04-30T09:54:01.249Z,59.89
2023-04-30T09:55:01.212Z,57.44
2023-04-30T09:56:01.197Z,57.34
2023-04-30T09:57:01.184Z,59.58
2023-04-30T09:58:01.173Z,58.97
2023-04-30T09:59:01.166Z,58.36
2023-04-30T10:00:01.176Z,56.24
2023-04-30T10:01:01.185Z,56.85
2023-04-30T10:02:01.136Z,57.78
2023-04-30T10:03:01.180Z,58.39
2023-04-30T10:04:01.154Z,56.35
2023-04-30T10:05:01.104Z,53.29
2023-04-30T10:06:01.181Z,55.43
2023-04-30T10:07:01.100Z,57.98
2023-04-30T10:08:01.084Z,57.87
2023-04-30T10:09:01.060Z,57.57
2023-04-30T10:10:01.047Z,59.10
2023-04-30T10:11:01.049Z,59.48
2023-04-30T10:12:01.055Z,58.97
2023-04-30T10:13:01.015Z,56.32
2023-04-30T10:14:00.994Z,58.26
2023-04-30T10:15:00.989Z,57.44
2023-04-30T10:16:01.003Z,57.65
2023-04-30T10:17:01.013Z,59.05
2023-04-30T10:18:01.201Z,55.30
2023-04-30T10:19:00.960Z,57.54
2023-04-30T10:20:00.942Z,55.22
2023-04-30T10:21:00.920Z,55.53
2023-04-30T10:22:00.915Z,56.24
2023-04-30T10:23:00.900Z,57.75
2023-04-30T10:24:00.920Z,58.05
2023-04-30T10:25:00.880Z,57.24
2023-04-30T10:26:00.873Z,59.66
2023-04-30T10:27:00.849Z,59.96
2023-04-30T10:28:02.582Z,59.83
2023-04-30T10:29:00.836Z,58.10
2023-04-30T10:30:00.844Z,58.17
2023-04-30T10:31:00.808Z,58.58
2023-04-30T10:32:00.834Z,57.46
2023-04-30T10:33:00.817Z,57.43
2023-04-30T10:34:00.785Z,56.52
2023-04-30T10:35:00.766Z,56.73
2023-04-30T10:36:00.774Z,57.03
2023-04-30T10:37:00.743Z,58.45
2023-04-30T10:38:00.740Z,56.73
2023-04-30T10:39:00.733Z,57.34
2023-04-30T10:40:00.711Z,57.43
2023-04-30T10:41:00.713Z,56.42
2023-04-30T10:42:00.689Z,55.10
2023-04-30T10:43:00.681Z,53.88
2023-04-30T10:44:02.020Z,55.91
2023-04-30T10:45:00.672Z,55.10
2023-04-30T10:46:00.732Z,56.32
2023-04-30T10:47:00.650Z,56.73
2023-04-30T10:48:00.637Z,56.90
2023-04-30T10:49:00.609Z,55.38
2023-04-30T10:50:00.602Z,55.68
2023-04-30T10:51:00.612Z,56.39
2023-04-30T10:52:00.604Z,52.23
2023-04-30T10:53:00.564Z,54.46
2023-04-30T10:54:00.561Z,56.90
2023-04-30T10:55:00.551Z,57.68
2023-04-30T10:56:00.775Z,56.09
2023-04-30T10:57:00.513Z,55.99
2023-04-30T10:58:00.522Z,55.27
2023-04-30T10:59:00.505Z,56.60
2023-04-30T11:00:00.509Z,55.58
2023-04-30T11:01:00.524Z,54.36
2023-04-30T11:02:00.640Z,53.98
2023-04-30T11:03:00.520Z,55.38
2023-04-30T11:04:00.455Z,55.27
2023-04-30T11:05:00.464Z,55.88
2023-04-30T11:06:00.457Z,57.48
2023-04-30T11:07:00.409Z,56.26
2023-04-30T11:08:00.398Z,57.15
2023-04-30T11:09:00.391Z,56.24
2023-04-30T11:10:00.377Z,57.35
2023-04-30T11:11:00.398Z,57.76
2023-04-30T11:12:00.377Z,56.54
2023-04-30T11:13:01.652Z,55.91
2023-04-30T11:14:00.344Z,57.93
2023-04-30T11:15:00.331Z,55.10
2023-04-30T11:16:00.345Z,53.39
2023-04-30T11:17:00.294Z,54.72
2023-04-30T11:18:00.307Z,54.21
2023-04-30T11:19:00.269Z,55.73
2023-04-30T11:20:00.269Z,54.51
2023-04-30T11:21:00.261Z,55.63
2023-04-30T11:22:00.238Z,53.12
2023-04-30T11:23:00.229Z,55.35
2023-04-30T11:24:00.216Z,57.66
2023-04-30T11:25:00.223Z,56.04
2023-04-30T11:26:00.209Z,57.33
2023-04-30T11:27:00.186Z,57.73
2023-04-30T11:28:00.182Z,55.47
2023-04-30T11:29:00.189Z,55.98
2023-04-30T11:30:00.176Z,55.68
2023-04-30T11:31:00.190Z,56.67
2023-04-30T11:32:00.261Z,54.94
2023-04-30T11:33:00.177Z,53.83
2023-04-30T11:34:00.121Z,53.93
2023-04-30T11:35:00.125Z,52.81
2023-04-30T11:36:00.165Z,54.64
2023-04-30T11:37:00.086Z,54.64
2023-04-30T11:38:00.077Z,54.82
2023-04-30T11:39:00.052Z,52.59
2023-04-30T11:40:00.068Z,52.41
2023-04-30T11:41:00.062Z,52.61
2023-04-30T11:42:00.016Z,54.24
2023-04-30T11:43:00.010Z,53.30
2023-04-30T11:43:59.999Z,53.40
2023-04-30T11:44:59.992Z,50.76
2023-04-30T11:45:59.997Z,50.86
2023-04-30T11:47:00.115Z,51.47
2023-04-30T11:47:59.982Z,51.04
2023-04-30T11:48:59.948Z,51.27
2023-04-30T11:49:59.938Z,51.67
2023-04-30T11:50:59.944Z,52.69
2023-04-30T11:51:59.925Z,52.69
2023-04-30T11:52:59.901Z,52.06
2023-04-30T11:53:59.893Z,52.26
2023-04-30T11:54:59.880Z,53.47
2023-04-30T11:55:59.895Z,51.35
2023-04-30T11:56:59.870Z,51.04
2023-04-30T11:57:59.852Z,52.66
2023-04-30T11:58:59.839Z,52.76
2023-04-30T11:59:59.835Z,53.37
2023-04-30T12:00:59.830Z,52.36
2023-04-30T12:02:06.397Z,53.07
2023-04-30T12:03:00.032Z,52.76
2023-04-30T12:03:59.903Z,51.86
2023-04-30T12:04:59.770Z,51.93
2023-04-30T12:05:59.864Z,51.73
2023-04-30T12:06:59.760Z,51.62
2023-04-30T12:07:59.744Z,51.73
2023-04-30T12:08:59.735Z,50.92
2023-04-30T12:09:59.717Z,46.87
2023-04-30T12:10:59.734Z,47.27
2023-04-30T12:11:59.697Z,50.01
2023-04-30T12:12:59.692Z,50.82
2023-04-30T12:13:59.677Z,48.99
2023-04-30T12:14:59.671Z,50.11
2023-04-30T12:15:59.685Z,49.90
2023-04-30T12:16:59.750Z,50.23
2023-04-30T12:17:59.802Z,50.56
2023-04-30T12:18:59.644Z,48.94
2023-04-30T12:19:59.609Z,51.17
2023-04-30T12:20:59.626Z,53.47
2023-04-30T12:21:59.599Z,51.55
2023-04-30T12:22:59.592Z,51.53
2023-04-30T12:24:01.529Z,51.12
2023-04-30T12:24:59.555Z,46.06
2023-04-30T12:25:59.562Z,47.67
2023-04-30T12:26:59.538Z,48.79
2023-04-30T12:27:59.540Z,48.59
2023-04-30T12:28:59.523Z,45.45
2023-04-30T12:29:59.507Z,46.77
2023-04-30T12:30:59.529Z,44.92
2023-04-30T12:31:59.519Z,48.36
2023-04-30T12:32:59.482Z,43.02
2023-04-30T12:33:59.451Z,47.27
2023-04-30T12:34:59.449Z,47.38
2023-04-30T12:35:59.466Z,46.16
2023-04-30T12:36:59.435Z,45.87
2023-04-30T12:37:59.417Z,47.52
2023-04-30T12:38:59.398Z,47.92
2023-04-30T12:39:59.397Z,48.25
2023-04-30T12:41:00.686Z,50.46
2023-04-30T12:41:59.372Z,51.14
2023-04-30T12:42:59.361Z,48.31
2023-04-30T12:43:59.349Z,50.21
2023-04-30T12:44:59.352Z,49.90
2023-04-30T12:45:59.415Z,50.99
2023-04-30T12:46:59.312Z,50.29
2023-04-30T12:47:59.431Z,50.59
2023-04-30T12:48:59.292Z,50.46
2023-04-30T12:49:59.285Z,49.45
2023-04-30T12:50:59.287Z,47.74
2023-04-30T12:51:59.257Z,48.85